sensor_id;sensor_type;location;lat;lon;timestamp;P1;durP1;ratioP1;P2;durP2;ratioP2
4529;SDS011;2277;51.626;7.516;2023-01-01T00:02:00;24.87;;;6.77;;
4529;SDS011;2277;51.626;7.516;2023-01-01T00:04:25;7.10;;;4.83;;
4529;SDS011;2277;51.626;7.516;2023-01-01T00:06:51;6.33;;;5.60;;
4529;SDS011;2277;51.626;7.516;2023-01-01T00:09:17;5.67;;;4.90;;
4529;SDS011;2277;51.626;7.516;2023-01-01T00:12:01;7.97;;;6.27;;
4529;SDS011;2277;51.626;7.516;2023-01-01T00:14:27;9.13;;;5.13;;
4529;SDS011;2277;51.626;7.516;2023-01-01T00:16:53;9.40;;;5.03;;
4529;SDS011;2277;51.626;7.516;2023-01-01T00:19:20;5.33;;;4.93;;
4529;SDS011;2277;51.626;7.516;2023-01-01T00:21:46;5.73;;;4.40;;
4529;SDS011;2277;51.626;7.516;2023-01-01T00:24:12;5.63;;;5.10;;
4529;SDS011;2277;51.626;7.516;2023-01-01T00:26:37;6.80;;;5.43;;
4529;SDS011;2277;51.626;7.516;2023-01-01T00:29:03;7.63;;;4.47;;
4529;SDS011;2277;51.626;7.516;2023-01-01T00:31:29;9.63;;;7.33;;
4529;SDS011;2277;51.626;7.516;2023-01-01T00:33:56;9.03;;;5.07;;
4529;SDS011;2277;51.626;7.516;2023-01-01T00:36:23;5.47;;;4.93;;
4529;SDS011;2277;51.626;7.516;2023-01-01T00:38:50;5.70;;;4.10;;
4529;SDS011;2277;51.626;7.516;2023-01-01T00:41:16;7.17;;;6.33;;
4529;SDS011;2277;51.626;7.516;2023-01-01T00:43:42;7.70;;;4.77;;
4529;SDS011;2277;51.626;7.516;2023-01-01T00:46:08;5.70;;;5.07;;
4529;SDS011;2277;51.626;7.516;2023-01-01T00:48:35;7.53;;;4.93;;
4529;SDS011;2277;51.626;7.516;2023-01-01T00:51:01;11.67;;;6.40;;
4529;SDS011;2277;51.626;7.516;2023-01-01T00:53:27;8.77;;;4.73;;
4529;SDS011;2277;51.626;7.516;2023-01-01T00:55:53;12.90;;;6.87;;
4529;SDS011;2277;51.626;7.516;2023-01-01T00:58:20;12.43;;;7.17;;
4529;SDS011;2277;51.626;7.516;2023-01-01T01:00:47;5.33;;;4.37;;
4529;SDS011;2277;51.626;7.516;2023-01-01T01:03:13;6.07;;;4.07;;
4529;SDS011;2277;51.626;7.516;2023-01-01T01:08:29;6.90;;;6.30;;
4529;SDS011;2277;51.626;7.516;2023-01-01T01:11:03;24.30;;;6.23;;
4529;SDS011;2277;51.626;7.516;2023-01-01T01:13:32;6.87;;;6.17;;
4529;SDS011;2277;51.626;7.516;2023-01-01T01:15:58;8.40;;;5.87;;
4529;SDS011;2277;51.626;7.516;2023-01-01T01:18:24;6.70;;;6.10;;
4529;SDS011;2277;51.626;7.516;2023-01-01T01:20:50;7.13;;;5.90;;
4529;SDS011;2277;51.626;7.516;2023-01-01T01:23:17;8.30;;;6.93;;
4529;SDS011;2277;51.626;7.516;2023-01-01T01:25:43;6.07;;;5.50;;
4529;SDS011;2277;51.626;7.516;2023-01-01T01:28:09;9.40;;;5.70;;
4529;SDS011;2277;51.626;7.516;2023-01-01T01:30:36;9.27;;;7.07;;
4529;SDS011;2277;51.626;7.516;2023-01-01T01:33:02;9.43;;;6.60;;
4529;SDS011;2277;51.626;7.516;2023-01-01T01:35:28;9.80;;;6.00;;
4529;SDS011;2277;51.626;7.516;2023-01-01T01:37:53;11.90;;;6.30;;
4529;SDS011;2277;51.626;7.516;2023-01-01T01:40:19;7.13;;;5.20;;
4529;SDS011;2277;51.626;7.516;2023-01-01T01:42:46;15.53;;;5.30;;
4529;SDS011;2277;51.626;7.516;2023-01-01T01:45:12;5.10;;;4.57;;
4529;SDS011;2277;51.626;7.516;2023-01-01T01:47:48;8.60;;;6.40;;
4529;SDS011;2277;51.626;7.516;2023-01-01T01:55:23;11.50;;;5.80;;
4529;SDS011;2277;51.626;7.516;2023-01-01T01:57:52;8.77;;;5.83;;
4529;SDS011;2277;51.626;7.516;2023-01-01T02:00:18;9.00;;;5.23;;
4529;SDS011;2277;51.626;7.516;2023-01-01T02:03:01;6.70;;;4.03;;
4529;SDS011;2277;51.626;7.516;2023-01-01T02:05:35;6.13;;;3.50;;
4529;SDS011;2277;51.626;7.516;2023-01-01T02:08:02;6.43;;;5.30;;
4529;SDS011;2277;51.626;7.516;2023-01-01T02:10:28;3.57;;;3.13;;
4529;SDS011;2277;51.626;7.516;2023-01-01T02:12:54;4.87;;;4.30;;
4529;SDS011;2277;51.626;7.516;2023-01-01T02:15:20;3.10;;;2.70;;
4529;SDS011;2277;51.626;7.516;2023-01-01T02:18:00;2.50;;;2.30;;
4529;SDS011;2277;51.626;7.516;2023-01-01T02:21:38;4.33;;;2.37;;
4529;SDS011;2277;51.626;7.516;2023-01-01T02:28:50;2.33;;;2.13;;
4529;SDS011;2277;51.626;7.516;2023-01-01T02:31:33;3.23;;;2.27;;
4529;SDS011;2277;51.626;7.516;2023-01-01T02:34:05;2.23;;;1.73;;
4529;SDS011;2277;51.626;7.516;2023-01-01T02:36:34;5.00;;;3.03;;
4529;SDS011;2277;51.626;7.516;2023-01-01T02:39:03;4.10;;;2.00;;
4529;SDS011;2277;51.626;7.516;2023-01-01T02:41:35;4.07;;;2.03;;
4529;SDS011;2277;51.626;7.516;2023-01-01T02:44:04;2.80;;;1.47;;
4529;SDS011;2277;51.626;7.516;2023-01-01T02:46:31;3.77;;;1.80;;
4529;SDS011;2277;51.626;7.516;2023-01-01T02:48:59;3.00;;;1.40;;
4529;SDS011;2277;51.626;7.516;2023-01-01T02:59:27;2.20;;;1.50;;
4529;SDS011;2277;51.626;7.516;2023-01-01T03:08:07;2.23;;;1.80;;
4529;SDS011;2277;51.626;7.516;2023-01-01T03:18:56;2.33;;;1.33;;
4529;SDS011;2277;51.626;7.516;2023-01-01T03:21:46;5.37;;;3.03;;
4529;SDS011;2277;51.626;7.516;2023-01-01T03:24:44;4.67;;;1.43;;
4529;SDS011;2277;51.626;7.516;2023-01-01T03:29:44;4.10;;;1.70;;
4529;SDS011;2277;51.626;7.516;2023-01-01T03:32:15;1.57;;;1.33;;
4529;SDS011;2277;51.626;7.516;2023-01-01T03:34:52;3.20;;;1.50;;
4529;SDS011;2277;51.626;7.516;2023-01-01T03:37:24;1.43;;;1.00;;
4529;SDS011;2277;51.626;7.516;2023-01-01T03:39:53;2.83;;;2.07;;
4529;SDS011;2277;51.626;7.516;2023-01-01T03:44:59;2.33;;;1.23;;
4529;SDS011;2277;51.626;7.516;2023-01-01T03:47:29;2.30;;;1.67;;
4529;SDS011;2277;51.626;7.516;2023-01-01T03:49:55;3.83;;;0.90;;
4529;SDS011;2277;51.626;7.516;2023-01-01T03:52:25;2.63;;;1.80;;
4529;SDS011;2277;51.626;7.516;2023-01-01T04:00:32;9.13;;;2.50;;
4529;SDS011;2277;51.626;7.516;2023-01-01T04:03:05;15.10;;;3.77;;
4529;SDS011;2277;51.626;7.516;2023-01-01T04:05:36;2.40;;;1.70;;
4529;SDS011;2277;51.626;7.516;2023-01-01T04:08:04;4.27;;;3.13;;
4529;SDS011;2277;51.626;7.516;2023-01-01T04:10:32;1.43;;;1.20;;
4529;SDS011;2277;51.626;7.516;2023-01-01T04:13:01;2.33;;;1.80;;
4529;SDS011;2277;51.626;7.516;2023-01-01T04:15:29;2.70;;;1.23;;
4529;SDS011;2277;51.626;7.516;2023-01-01T04:17:55;2.17;;;1.10;;
4529;SDS011;2277;51.626;7.516;2023-01-01T04:20:22;2.97;;;1.33;;
4529;SDS011;2277;51.626;7.516;2023-01-01T04:22:48;1.60;;;1.00;;
4529;SDS011;2277;51.626;7.516;2023-01-01T04:25:14;3.37;;;1.87;;
4529;SDS011;2277;51.626;7.516;2023-01-01T04:27:41;1.53;;;1.40;;
4529;SDS011;2277;51.626;7.516;2023-01-01T04:30:08;1.73;;;1.63;;
4529;SDS011;2277;51.626;7.516;2023-01-01T04:32:35;2.57;;;1.40;;
4529;SDS011;2277;51.626;7.516;2023-01-01T04:35:01;3.00;;;1.53;;
4529;SDS011;2277;51.626;7.516;2023-01-01T04:37:27;6.33;;;1.93;;
4529;SDS011;2277;51.626;7.516;2023-01-01T04:39:53;2.03;;;1.13;;
4529;SDS011;2277;51.626;7.516;2023-01-01T04:42:18;2.30;;;2.10;;
4529;SDS011;2277;51.626;7.516;2023-01-01T04:44:45;5.13;;;3.40;;
4529;SDS011;2277;51.626;7.516;2023-01-01T04:47:11;2.77;;;2.57;;
4529;SDS011;2277;51.626;7.516;2023-01-01T04:49:36;2.23;;;1.30;;
4529;SDS011;2277;51.626;7.516;2023-01-01T04:52:02;4.70;;;2.07;;
4529;SDS011;2277;51.626;7.516;2023-01-01T04:54:28;3.70;;;1.73;;
4529;SDS011;2277;51.626;7.516;2023-01-01T04:56:53;2.13;;;1.30;;
4529;SDS011;2277;51.626;7.516;2023-01-01T04:59:19;2.80;;;1.87;;
4529;SDS011;2277;51.626;7.516;2023-01-01T05:01:45;2.40;;;2.20;;
4529;SDS011;2277;51.626;7.516;2023-01-01T05:04:13;6.53;;;1.63;;
4529;SDS011;2277;51.626;7.516;2023-01-01T05:06:41;1.80;;;1.50;;
4529;SDS011;2277;51.626;7.516;2023-01-01T05:09:10;2.00;;;1.53;;
4529;SDS011;2277;51.626;7.516;2023-01-01T05:11:36;6.53;;;1.90;;
4529;SDS011;2277;51.626;7.516;2023-01-01T05:14:02;3.00;;;1.20;;
4529;SDS011;2277;51.626;7.516;2023-01-01T05:16:30;1.90;;;1.80;;
4529;SDS011;2277;51.626;7.516;2023-01-01T05:18:57;3.07;;;1.63;;
4529;SDS011;2277;51.626;7.516;2023-01-01T05:21:24;2.10;;;1.30;;
4529;SDS011;2277;51.626;7.516;2023-01-01T05:23:54;7.67;;;2.40;;
4529;SDS011;2277;51.626;7.516;2023-01-01T05:26:23;1.40;;;1.20;;
4529;SDS011;2277;51.626;7.516;2023-01-01T05:28:52;1.80;;;1.70;;
4529;SDS011;2277;51.626;7.516;2023-01-01T05:31:19;2.30;;;2.10;;
4529;SDS011;2277;51.626;7.516;2023-01-01T05:33:48;3.50;;;2.40;;
4529;SDS011;2277;51.626;7.516;2023-01-01T05:36:17;1.97;;;1.07;;
4529;SDS011;2277;51.626;7.516;2023-01-01T05:38:47;2.77;;;2.53;;
4529;SDS011;2277;51.626;7.516;2023-01-01T05:41:13;1.77;;;1.40;;
4529;SDS011;2277;51.626;7.516;2023-01-01T05:43:40;3.77;;;2.60;;
4529;SDS011;2277;51.626;7.516;2023-01-01T05:46:16;3.60;;;1.80;;
4529;SDS011;2277;51.626;7.516;2023-01-01T05:48:48;2.80;;;2.13;;
4529;SDS011;2277;51.626;7.516;2023-01-01T05:51:19;1.67;;;1.27;;
4529;SDS011;2277;51.626;7.516;2023-01-01T05:53:46;1.50;;;1.20;;
4529;SDS011;2277;51.626;7.516;2023-01-01T05:56:12;7.43;;;2.43;;
4529;SDS011;2277;51.626;7.516;2023-01-01T05:58:39;1.83;;;1.37;;
4529;SDS011;2277;51.626;7.516;2023-01-01T06:01:07;3.50;;;2.33;;
4529;SDS011;2277;51.626;7.516;2023-01-01T06:03:44;2.13;;;1.93;;
4529;SDS011;2277;51.626;7.516;2023-01-01T06:06:11;1.40;;;1.30;;
4529;SDS011;2277;51.626;7.516;2023-01-01T06:08:39;14.23;;;2.53;;
4529;SDS011;2277;51.626;7.516;2023-01-01T06:11:06;2.00;;;1.50;;
4529;SDS011;2277;51.626;7.516;2023-01-01T06:13:33;1.77;;;0.93;;
4529;SDS011;2277;51.626;7.516;2023-01-01T06:15:59;2.47;;;1.87;;
4529;SDS011;2277;51.626;7.516;2023-01-01T06:18:28;1.50;;;1.40;;
4529;SDS011;2277;51.626;7.516;2023-01-01T06:20:55;1.20;;;1.00;;
4529;SDS011;2277;51.626;7.516;2023-01-01T06:23:37;1.77;;;1.67;;
4529;SDS011;2277;51.626;7.516;2023-01-01T06:26:25;1.73;;;1.57;;
4529;SDS011;2277;51.626;7.516;2023-01-01T06:28:51;2.10;;;1.40;;
4529;SDS011;2277;51.626;7.516;2023-01-01T06:31:18;2.13;;;1.43;;
4529;SDS011;2277;51.626;7.516;2023-01-01T06:33:45;2.30;;;2.10;;
4529;SDS011;2277;51.626;7.516;2023-01-01T06:36:12;4.20;;;3.80;;
4529;SDS011;2277;51.626;7.516;2023-01-01T06:38:43;1.63;;;1.53;;
4529;SDS011;2277;51.626;7.516;2023-01-01T06:41:11;1.47;;;1.37;;
4529;SDS011;2277;51.626;7.516;2023-01-01T06:43:39;1.80;;;1.53;;
4529;SDS011;2277;51.626;7.516;2023-01-01T06:46:13;3.47;;;1.37;;
4529;SDS011;2277;51.626;7.516;2023-01-01T06:48:43;3.40;;;1.87;;
4529;SDS011;2277;51.626;7.516;2023-01-01T06:51:14;2.07;;;1.87;;
4529;SDS011;2277;51.626;7.516;2023-01-01T06:53:44;1.83;;;1.63;;
4529;SDS011;2277;51.626;7.516;2023-01-01T06:56:10;3.77;;;1.50;;
4529;SDS011;2277;51.626;7.516;2023-01-01T06:58:36;6.77;;;2.83;;
4529;SDS011;2277;51.626;7.516;2023-01-01T07:01:06;4.93;;;1.70;;
4529;SDS011;2277;51.626;7.516;2023-01-01T07:03:39;8.17;;;1.30;;
4529;SDS011;2277;51.626;7.516;2023-01-01T07:06:06;3.37;;;1.70;;
4529;SDS011;2277;51.626;7.516;2023-01-01T07:08:33;8.30;;;2.60;;
4529;SDS011;2277;51.626;7.516;2023-01-01T07:10:59;2.27;;;1.67;;
4529;SDS011;2277;51.626;7.516;2023-01-01T07:13:26;2.43;;;1.47;;
4529;SDS011;2277;51.626;7.516;2023-01-01T07:15:54;3.40;;;1.60;;
4529;SDS011;2277;51.626;7.516;2023-01-01T07:18:20;7.60;;;4.13;;
4529;SDS011;2277;51.626;7.516;2023-01-01T07:20:48;2.10;;;1.90;;
4529;SDS011;2277;51.626;7.516;2023-01-01T07:23:18;4.87;;;2.80;;
4529;SDS011;2277;51.626;7.516;2023-01-01T07:25:43;3.13;;;2.60;;
4529;SDS011;2277;51.626;7.516;2023-01-01T07:28:09;5.60;;;1.73;;
4529;SDS011;2277;51.626;7.516;2023-01-01T07:30:35;3.20;;;2.47;;
4529;SDS011;2277;51.626;7.516;2023-01-01T07:33:00;2.73;;;2.53;;
4529;SDS011;2277;51.626;7.516;2023-01-01T07:35:26;4.27;;;1.63;;
4529;SDS011;2277;51.626;7.516;2023-01-01T07:37:51;1.97;;;1.20;;
4529;SDS011;2277;51.626;7.516;2023-01-01T07:40:17;3.20;;;3.00;;
4529;SDS011;2277;51.626;7.516;2023-01-01T07:42:42;3.87;;;3.40;;
4529;SDS011;2277;51.626;7.516;2023-01-01T07:45:10;2.40;;;1.97;;
4529;SDS011;2277;51.626;7.516;2023-01-01T07:47:36;2.77;;;1.20;;
4529;SDS011;2277;51.626;7.516;2023-01-01T07:50:02;3.00;;;2.30;;
4529;SDS011;2277;51.626;7.516;2023-01-01T07:52:28;1.40;;;0.87;;
4529;SDS011;2277;51.626;7.516;2023-01-01T07:54:53;1.97;;;1.63;;
4529;SDS011;2277;51.626;7.516;2023-01-01T07:57:19;3.00;;;1.53;;
4529;SDS011;2277;51.626;7.516;2023-01-01T07:59:44;1.70;;;1.60;;
4529;SDS011;2277;51.626;7.516;2023-01-01T08:02:10;4.23;;;2.37;;
4529;SDS011;2277;51.626;7.516;2023-01-01T08:04:37;3.63;;;2.50;;
4529;SDS011;2277;51.626;7.516;2023-01-01T08:07:03;3.50;;;2.17;;
4529;SDS011;2277;51.626;7.516;2023-01-01T08:09:28;1.80;;;1.40;;
4529;SDS011;2277;51.626;7.516;2023-01-01T08:11:54;7.60;;;2.03;;
4529;SDS011;2277;51.626;7.516;2023-01-01T08:14:22;2.50;;;1.33;;
4529;SDS011;2277;51.626;7.516;2023-01-01T08:16:49;1.50;;;1.40;;
4529;SDS011;2277;51.626;7.516;2023-01-01T08:19:15;5.83;;;1.40;;
4529;SDS011;2277;51.626;7.516;2023-01-01T08:21:41;1.70;;;1.10;;
4529;SDS011;2277;51.626;7.516;2023-01-01T08:24:06;2.07;;;1.67;;
4529;SDS011;2277;51.626;7.516;2023-01-01T08:26:33;2.43;;;1.27;;
4529;SDS011;2277;51.626;7.516;2023-01-01T08:29:03;2.63;;;1.87;;
4529;SDS011;2277;51.626;7.516;2023-01-01T08:31:30;2.53;;;2.10;;
4529;SDS011;2277;51.626;7.516;2023-01-01T08:33:56;2.90;;;1.57;;
4529;SDS011;2277;51.626;7.516;2023-01-01T08:36:22;1.93;;;1.77;;
4529;SDS011;2277;51.626;7.516;2023-01-01T08:38:48;4.13;;;2.63;;
4529;SDS011;2277;51.626;7.516;2023-01-01T08:41:13;1.30;;;1.10;;
4529;SDS011;2277;51.626;7.516;2023-01-01T08:43:39;1.30;;;1.10;;
4529;SDS011;2277;51.626;7.516;2023-01-01T08:46:04;2.47;;;1.57;;
4529;SDS011;2277;51.626;7.516;2023-01-01T08:48:30;2.40;;;2.20;;
4529;SDS011;2277;51.626;7.516;2023-01-01T08:50:56;1.60;;;1.50;;
4529;SDS011;2277;51.626;7.516;2023-01-01T08:53:24;2.27;;;1.10;;
4529;SDS011;2277;51.626;7.516;2023-01-01T08:55:54;1.87;;;1.07;;
4529;SDS011;2277;51.626;7.516;2023-01-01T08:58:24;1.57;;;1.23;;
4529;SDS011;2277;51.626;7.516;2023-01-01T09:00:50;5.97;;;2.20;;
4529;SDS011;2277;51.626;7.516;2023-01-01T09:03:15;6.57;;;3.97;;
4529;SDS011;2277;51.626;7.516;2023-01-01T09:05:41;8.17;;;2.97;;
4529;SDS011;2277;51.626;7.516;2023-01-01T09:08:10;4.90;;;2.43;;
4529;SDS011;2277;51.626;7.516;2023-01-01T09:10:36;3.53;;;1.97;;
4529;SDS011;2277;51.626;7.516;2023-01-01T09:13:02;2.00;;;1.50;;
4529;SDS011;2277;51.626;7.516;2023-01-01T09:15:28;3.57;;;1.57;;
4529;SDS011;2277;51.626;7.516;2023-01-01T09:17:53;5.77;;;3.33;;
4529;SDS011;2277;51.626;7.516;2023-01-01T09:20:19;2.97;;;2.30;;
4529;SDS011;2277;51.626;7.516;2023-01-01T09:22:45;3.33;;;1.43;;
4529;SDS011;2277;51.626;7.516;2023-01-01T09:25:10;2.57;;;2.37;;
4529;SDS011;2277;51.626;7.516;2023-01-01T09:27:36;2.60;;;1.60;;
4529;SDS011;2277;51.626;7.516;2023-01-01T09:30:02;5.60;;;2.40;;
4529;SDS011;2277;51.626;7.516;2023-01-01T09:32:28;2.83;;;2.50;;
4529;SDS011;2277;51.626;7.516;2023-01-01T09:34:53;1.70;;;1.50;;
4529;SDS011;2277;51.626;7.516;2023-01-01T09:37:20;3.33;;;2.00;;
4529;SDS011;2277;51.626;7.516;2023-01-01T09:39:46;5.30;;;3.00;;
4529;SDS011;2277;51.626;7.516;2023-01-01T09:42:17;1.77;;;1.63;;
4529;SDS011;2277;51.626;7.516;2023-01-01T09:45:02;2.63;;;2.40;;
4529;SDS011;2277;51.626;7.516;2023-01-01T09:47:59;3.13;;;1.70;;
4529;SDS011;2277;51.626;7.516;2023-01-01T09:50:35;4.67;;;1.77;;
4529;SDS011;2277;51.626;7.516;2023-01-01T09:53:04;1.80;;;1.00;;
4529;SDS011;2277;51.626;7.516;2023-01-01T09:58:06;6.97;;;2.53;;
4529;SDS011;2277;51.626;7.516;2023-01-01T10:00:34;2.37;;;1.87;;
4529;SDS011;2277;51.626;7.516;2023-01-01T10:05:51;3.00;;;1.40;;
4529;SDS011;2277;51.626;7.516;2023-01-01T10:14:09;4.30;;;1.40;;
4529;SDS011;2277;51.626;7.516;2023-01-01T10:16:46;1.67;;;1.10;;
4529;SDS011;2277;51.626;7.516;2023-01-01T10:19:34;2.70;;;1.83;;
4529;SDS011;2277;51.626;7.516;2023-01-01T10:22:08;2.00;;;1.80;;
4529;SDS011;2277;51.626;7.516;2023-01-01T10:27:22;3.73;;;1.93;;
4529;SDS011;2277;51.626;7.516;2023-01-01T10:29:55;1.57;;;1.40;;
4529;SDS011;2277;51.626;7.516;2023-01-01T10:32:29;6.33;;;2.63;;
4529;SDS011;2277;51.626;7.516;2023-01-01T10:34:57;2.10;;;1.40;;
4529;SDS011;2277;51.626;7.516;2023-01-01T10:37:25;2.93;;;2.33;;
4529;SDS011;2277;51.626;7.516;2023-01-01T10:39:58;1.40;;;1.30;;
4529;SDS011;2277;51.626;7.516;2023-01-01T10:42:28;1.73;;;1.53;;
4529;SDS011;2277;51.626;7.516;2023-01-01T10:44:54;8.23;;;2.47;;
4529;SDS011;2277;51.626;7.516;2023-01-01T10:47:22;4.30;;;2.83;;
4529;SDS011;2277;51.626;7.516;2023-01-01T10:49:57;4.20;;;2.80;;
4529;SDS011;2277;51.626;7.516;2023-01-01T10:52:27;3.37;;;2.30;;
4529;SDS011;2277;51.626;7.516;2023-01-01T10:55:18;3.63;;;2.13;;
4529;SDS011;2277;51.626;7.516;2023-01-01T10:57:45;4.00;;;2.40;;
4529;SDS011;2277;51.626;7.516;2023-01-01T11:08:30;3.43;;;2.40;;
4529;SDS011;2277;51.626;7.516;2023-01-01T11:10:58;5.07;;;1.80;;
4529;SDS011;2277;51.626;7.516;2023-01-01T11:13:26;2.70;;;1.88;;
4529;SDS011;2277;51.626;7.516;2023-01-01T11:15:53;4.43;;;2.30;;
4529;SDS011;2277;51.626;7.516;2023-01-01T11:18:20;2.10;;;1.77;;
4529;SDS011;2277;51.626;7.516;2023-01-01T11:20:52;5.00;;;1.43;;
4529;SDS011;2277;51.626;7.516;2023-01-01T11:23:30;2.47;;;1.20;;
4529;SDS011;2277;51.626;7.516;2023-01-01T11:28:23;2.43;;;2.00;;
4529;SDS011;2277;51.626;7.516;2023-01-01T11:33:46;4.90;;;3.47;;
4529;SDS011;2277;51.626;7.516;2023-01-01T11:36:24;2.30;;;1.87;;
4529;SDS011;2277;51.626;7.516;2023-01-01T11:41:51;1.43;;;1.33;;
4529;SDS011;2277;51.626;7.516;2023-01-01T11:46:48;4.60;;;2.40;;
4529;SDS011;2277;51.626;7.516;2023-01-01T11:49:14;10.03;;;2.93;;
4529;SDS011;2277;51.626;7.516;2023-01-01T11:51:47;2.90;;;1.80;;
4529;SDS011;2277;51.626;7.516;2023-01-01T11:54:31;2.50;;;2.30;;
4529;SDS011;2277;51.626;7.516;2023-01-01T11:57:08;2.13;;;1.93;;
4529;SDS011;2277;51.626;7.516;2023-01-01T11:59:53;1.70;;;1.60;;
4529;SDS011;2277;51.626;7.516;2023-01-01T12:02:35;1.67;;;0.90;;
4529;SDS011;2277;51.626;7.516;2023-01-01T12:05:09;2.57;;;2.23;;
4529;SDS011;2277;51.626;7.516;2023-01-01T12:07:50;7.35;;;2.63;;
4529;SDS011;2277;51.626;7.516;2023-01-01T12:13:14;4.93;;;3.97;;
4529;SDS011;2277;51.626;7.516;2023-01-01T12:15:46;2.43;;;1.80;;
4529;SDS011;2277;51.626;7.516;2023-01-01T12:23:47;5.63;;;1.63;;
4529;SDS011;2277;51.626;7.516;2023-01-01T12:34:16;13.63;;;3.20;;
4529;SDS011;2277;51.626;7.516;2023-01-01T12:37:33;1.73;;;1.63;;
4529;SDS011;2277;51.626;7.516;2023-01-01T12:59:40;5.77;;;3.70;;
4529;SDS011;2277;51.626;7.516;2023-01-01T13:02:19;2.27;;;1.23;;
4529;SDS011;2277;51.626;7.516;2023-01-01T13:04:50;4.47;;;2.17;;
4529;SDS011;2277;51.626;7.516;2023-01-01T13:07:23;3.73;;;1.60;;
4529;SDS011;2277;51.626;7.516;2023-01-01T13:09:53;3.40;;;2.20;;
4529;SDS011;2277;51.626;7.516;2023-01-01T13:12:20;7.93;;;1.80;;
4529;SDS011;2277;51.626;7.516;2023-01-01T13:14:48;5.73;;;2.40;;
4529;SDS011;2277;51.626;7.516;2023-01-01T13:19:57;4.80;;;2.50;;
4529;SDS011;2277;51.626;7.516;2023-01-01T13:28:19;9.73;;;4.87;;
4529;SDS011;2277;51.626;7.516;2023-01-01T13:38:48;8.50;;;3.50;;
4529;SDS011;2277;51.626;7.516;2023-01-01T13:49:13;4.10;;;1.70;;
4529;SDS011;2277;51.626;7.516;2023-01-01T14:00:24;1.37;;;1.20;;
4529;SDS011;2277;51.626;7.516;2023-01-01T14:03:02;1.50;;;0.93;;
4529;SDS011;2277;51.626;7.516;2023-01-01T14:05:50;1.63;;;1.47;;
4529;SDS011;2277;51.626;7.516;2023-01-01T14:08:28;10.93;;;3.60;;
4529;SDS011;2277;51.626;7.516;2023-01-01T14:10:58;2.70;;;1.53;;
4529;SDS011;2277;51.626;7.516;2023-01-01T14:13:25;5.00;;;2.80;;
4529;SDS011;2277;51.626;7.516;2023-01-01T14:16:00;1.50;;;1.40;;
4529;SDS011;2277;51.626;7.516;2023-01-01T14:18:37;3.20;;;1.60;;
4529;SDS011;2277;51.626;7.516;2023-01-01T14:21:18;3.00;;;1.40;;
4529;SDS011;2277;51.626;7.516;2023-01-01T14:26:43;6.00;;;2.40;;
4529;SDS011;2277;51.626;7.516;2023-01-01T14:29:12;16.63;;;1.90;;
4529;SDS011;2277;51.626;7.516;2023-01-01T14:32:10;3.47;;;2.53;;
4529;SDS011;2277;51.626;7.516;2023-01-01T14:34:38;1.63;;;1.50;;
4529;SDS011;2277;51.626;7.516;2023-01-01T14:37:04;3.87;;;1.80;;
4529;SDS011;2277;51.626;7.516;2023-01-01T14:39:42;2.10;;;1.70;;
4529;SDS011;2277;51.626;7.516;2023-01-01T14:42:11;4.57;;;3.40;;
4529;SDS011;2277;51.626;7.516;2023-01-01T14:44:41;1.70;;;1.30;;
4529;SDS011;2277;51.626;7.516;2023-01-01T14:47:20;4.00;;;2.40;;
4529;SDS011;2277;51.626;7.516;2023-01-01T14:49:47;10.27;;;2.87;;
4529;SDS011;2277;51.626;7.516;2023-01-01T14:52:25;2.90;;;1.60;;
4529;SDS011;2277;51.626;7.516;2023-01-01T14:54:53;6.20;;;3.80;;
4529;SDS011;2277;51.626;7.516;2023-01-01T14:57:22;4.30;;;1.83;;
4529;SDS011;2277;51.626;7.516;2023-01-01T14:59:51;2.80;;;2.27;;
4529;SDS011;2277;51.626;7.516;2023-01-01T15:02:51;3.23;;;2.00;;
4529;SDS011;2277;51.626;7.516;2023-01-01T15:08:15;5.20;;;2.53;;
4529;SDS011;2277;51.626;7.516;2023-01-01T15:10:43;2.80;;;1.33;;
4529;SDS011;2277;51.626;7.516;2023-01-01T15:13:12;2.27;;;1.67;;
4529;SDS011;2277;51.626;7.516;2023-01-01T15:15:43;2.40;;;1.73;;
4529;SDS011;2277;51.626;7.516;2023-01-01T15:23:53;2.00;;;1.63;;
4529;SDS011;2277;51.626;7.516;2023-01-01T15:26:36;7.90;;;3.10;;
4529;SDS011;2277;51.626;7.516;2023-01-01T15:29:09;1.50;;;1.10;;
4529;SDS011;2277;51.626;7.516;2023-01-01T15:31:41;2.80;;;1.37;;
4529;SDS011;2277;51.626;7.516;2023-01-01T15:34:14;2.67;;;1.87;;
4529;SDS011;2277;51.626;7.516;2023-01-01T15:36:51;1.53;;;1.17;;
4529;SDS011;2277;51.626;7.516;2023-01-01T15:39:19;3.47;;;1.57;;
4529;SDS011;2277;51.626;7.516;2023-01-01T15:41:47;4.13;;;1.60;;
4529;SDS011;2277;51.626;7.516;2023-01-01T15:44:24;1.43;;;1.10;;
4529;SDS011;2277;51.626;7.516;2023-01-01T15:46:52;3.77;;;2.57;;
4529;SDS011;2277;51.626;7.516;2023-01-01T15:49:27;2.27;;;1.90;;
4529;SDS011;2277;51.626;7.516;2023-01-01T15:51:54;2.77;;;1.90;;
4529;SDS011;2277;51.626;7.516;2023-01-01T15:54:23;2.07;;;1.97;;
4529;SDS011;2277;51.626;7.516;2023-01-01T15:56:49;2.53;;;1.73;;
4529;SDS011;2277;51.626;7.516;2023-01-01T16:02:06;1.80;;;1.50;;
4529;SDS011;2277;51.626;7.516;2023-01-01T16:04:35;2.67;;;2.47;;
4529;SDS011;2277;51.626;7.516;2023-01-01T16:07:00;17.03;;;4.40;;
4529;SDS011;2277;51.626;7.516;2023-01-01T16:09:26;1.87;;;1.30;;
4529;SDS011;2277;51.626;7.516;2023-01-01T16:11:53;1.77;;;1.30;;
4529;SDS011;2277;51.626;7.516;2023-01-01T16:14:20;4.90;;;1.50;;
4529;SDS011;2277;51.626;7.516;2023-01-01T16:16:49;2.90;;;2.37;;
4529;SDS011;2277;51.626;7.516;2023-01-01T16:19:18;2.17;;;1.70;;
4529;SDS011;2277;51.626;7.516;2023-01-01T16:21:46;1.93;;;1.70;;
4529;SDS011;2277;51.626;7.516;2023-01-01T16:24:15;1.70;;;1.60;;
4529;SDS011;2277;51.626;7.516;2023-01-01T16:26:41;2.90;;;1.93;;
4529;SDS011;2277;51.626;7.516;2023-01-01T16:29:08;3.10;;;2.20;;
4529;SDS011;2277;51.626;7.516;2023-01-01T16:31:34;3.07;;;2.77;;
4529;SDS011;2277;51.626;7.516;2023-01-01T16:34:00;3.60;;;1.90;;
4529;SDS011;2277;51.626;7.516;2023-01-01T16:36:26;3.37;;;2.70;;
4529;SDS011;2277;51.626;7.516;2023-01-01T16:38:53;2.57;;;1.67;;
4529;SDS011;2277;51.626;7.516;2023-01-01T16:41:19;1.97;;;1.57;;
4529;SDS011;2277;51.626;7.516;2023-01-01T16:43:45;8.93;;;2.23;;
4529;SDS011;2277;51.626;7.516;2023-01-01T16:46:11;2.17;;;1.50;;
4529;SDS011;2277;51.626;7.516;2023-01-01T16:48:38;1.77;;;1.67;;
4529;SDS011;2277;51.626;7.516;2023-01-01T16:51:04;4.20;;;1.00;;
4529;SDS011;2277;51.626;7.516;2023-01-01T16:53:30;2.30;;;2.10;;
4529;SDS011;2277;51.626;7.516;2023-01-01T16:55:56;1.53;;;1.13;;
4529;SDS011;2277;51.626;7.516;2023-01-01T16:58:23;3.80;;;1.83;;
4529;SDS011;2277;51.626;7.516;2023-01-01T17:00:48;1.13;;;1.03;;
4529;SDS011;2277;51.626;7.516;2023-01-01T17:03:14;2.20;;;1.27;;
4529;SDS011;2277;51.626;7.516;2023-01-01T17:05:40;1.27;;;1.00;;
4529;SDS011;2277;51.626;7.516;2023-01-01T17:08:06;2.23;;;0.90;;
4529;SDS011;2277;51.626;7.516;2023-01-01T17:10:31;1.77;;;1.67;;
4529;SDS011;2277;51.626;7.516;2023-01-01T17:12:57;1.30;;;0.90;;
4529;SDS011;2277;51.626;7.516;2023-01-01T17:15:28;6.63;;;1.80;;
4529;SDS011;2277;51.626;7.516;2023-01-01T17:17:56;3.43;;;1.57;;
4529;SDS011;2277;51.626;7.516;2023-01-01T17:20:22;3.90;;;1.73;;
4529;SDS011;2277;51.626;7.516;2023-01-01T17:22:48;1.40;;;1.30;;
4529;SDS011;2277;51.626;7.516;2023-01-01T17:25:14;3.10;;;1.33;;
4529;SDS011;2277;51.626;7.516;2023-01-01T17:27:40;1.83;;;0.93;;
4529;SDS011;2277;51.626;7.516;2023-01-01T17:30:05;5.00;;;1.70;;
4529;SDS011;2277;51.626;7.516;2023-01-01T17:32:32;3.00;;;1.37;;
4529;SDS011;2277;51.626;7.516;2023-01-01T17:35:00;3.33;;;1.53;;
4529;SDS011;2277;51.626;7.516;2023-01-01T17:37:26;2.33;;;1.33;;
4529;SDS011;2277;51.626;7.516;2023-01-01T17:39:52;1.90;;;1.20;;
4529;SDS011;2277;51.626;7.516;2023-01-01T17:42:18;2.97;;;1.20;;
4529;SDS011;2277;51.626;7.516;2023-01-01T17:44:43;2.40;;;1.20;;
4529;SDS011;2277;51.626;7.516;2023-01-01T17:47:09;1.50;;;1.03;;
4529;SDS011;2277;51.626;7.516;2023-01-01T17:49:35;2.47;;;1.90;;
4529;SDS011;2277;51.626;7.516;2023-01-01T17:52:00;4.70;;;2.20;;
4529;SDS011;2277;51.626;7.516;2023-01-01T17:54:26;4.23;;;3.27;;
4529;SDS011;2277;51.626;7.516;2023-01-01T17:56:52;2.10;;;1.37;;
4529;SDS011;2277;51.626;7.516;2023-01-01T17:59:17;1.87;;;1.73;;
4529;SDS011;2277;51.626;7.516;2023-01-01T18:01:43;3.07;;;1.50;;
4529;SDS011;2277;51.626;7.516;2023-01-01T18:04:09;3.17;;;2.90;;
4529;SDS011;2277;51.626;7.516;2023-01-01T18:06:36;1.53;;;1.43;;
4529;SDS011;2277;51.626;7.516;2023-01-01T18:09:04;2.43;;;2.23;;
4529;SDS011;2277;51.626;7.516;2023-01-01T18:11:32;3.07;;;2.20;;